createdAt,value
2016-09-14T00:00:05.499Z,74189
2016-09-14T00:00:14.501Z,74187
2016-09-14T00:00:23.220Z,74188
2016-09-14T00:00:31.922Z,74188
2016-09-14T00:00:40.624Z,74187
2016-09-14T00:00:49.374Z,74186
2016-09-14T00:00:58.090Z,74189
2016-09-14T00:01:06.806Z,74187
2016-09-14T00:01:15.539Z,74187
2016-09-14T00:01:24.261Z,74189
2016-09-14T00:01:32.961Z,74189
2016-09-14T00:01:41.675Z,74191
2016-09-14T00:01:50.364Z,74189
2016-09-14T00:01:59.087Z,74188
2016-09-14T00:02:07.756Z,74189
2016-09-14T00:02:16.418Z,74188
2016-09-14T00:02:25.115Z,74187
2016-09-14T00:02:33.812Z,74184
2016-09-14T00:02:42.516Z,74185
2016-09-14T00:02:51.238Z,74185
2016-09-14T00:02:59.972Z,74188
2016-09-14T00:03:08.701Z,74186
2016-09-14T00:03:17.404Z,74185
2016-09-14T00:03:26.104Z,74188
2016-09-14T00:03:34.804Z,74186
2016-09-14T00:03:43.502Z,74190
2016-09-14T00:03:52.245Z,74188
2016-09-14T00:04:00.939Z,74186
2016-09-14T00:04:09.637Z,74185
2016-09-14T00:04:18.354Z,74188
2016-09-14T00:04:27.082Z,74185
2016-09-14T00:04:35.819Z,74189
2016-09-14T00:04:44.508Z,74187
2016-09-14T00:04:53.186Z,74188
2016-09-14T00:05:01.915Z,74189
2016-09-14T00:05:10.594Z,74186
2016-09-14T00:05:19.335Z,74189
2016-09-14T00:05:28.028Z,74189
2016-09-14T00:05:36.713Z,74187
2016-09-14T00:05:45.442Z,74186
2016-09-14T00:05:54.189Z,74189
2016-09-14T00:06:02.911Z,74188
2016-09-14T00:06:11.627Z,74184
2016-09-14T00:06:20.308Z,74185
2016-09-14T00:06:28.991Z,74187
2016-09-14T00:06:37.751Z,74187
2016-09-14T00:06:46.461Z,74186
2016-09-14T00:06:55.183Z,74187
2016-09-14T00:07:03.864Z,74190
2016-09-14T00:07:12.583Z,74182
2016-09-14T00:07:21.305Z,74185
2016-09-14T00:07:30.057Z,74188
2016-09-14T00:07:38.772Z,74187
2016-09-14T00:07:47.500Z,74188
2016-09-14T00:07:56.178Z,74190
2016-09-14T00:08:04.941Z,74188
2016-09-14T00:08:13.683Z,74185
2016-09-14T00:08:22.403Z,74189
2016-09-14T00:08:31.123Z,74189
2016-09-14T00:08:39.805Z,74195
2016-09-14T00:08:48.813Z,74187
2016-09-14T00:08:57.572Z,74189
2016-09-14T00:09:06.292Z,74185
2016-09-14T00:09:15.000Z,74189
2016-09-14T00:09:23.678Z,74184
2016-09-14T00:09:32.375Z,74188
2016-09-14T00:09:41.092Z,74185
2016-09-14T00:09:49.784Z,74185
2016-09-14T00:09:58.483Z,74188
2016-09-14T00:10:07.166Z,74186
2016-09-14T00:10:15.903Z,74188
2016-09-14T00:10:24.655Z,74185
2016-09-14T00:10:33.377Z,74183
2016-09-14T00:10:42.094Z,74183
2016-09-14T00:10:50.836Z,74185
2016-09-14T00:10:59.543Z,74190
2016-09-14T00:11:08.263Z,74186
2016-09-14T00:11:16.999Z,74188
2016-09-14T00:11:25.678Z,74183
2016-09-14T00:11:34.666Z,74185
2016-09-14T00:11:43.395Z,74191
2016-09-14T00:11:52.110Z,74190
2016-09-14T00:12:00.856Z,74185
2016-09-14T00:12:09.535Z,74188
2016-09-14T00:12:18.214Z,74188
2016-09-14T00:12:26.937Z,74183
2016-09-14T00:12:35.674Z,74186
2016-09-14T00:12:44.359Z,74185
2016-09-14T00:12:53.079Z,74190
2016-09-14T00:13:01.802Z,74187
2016-09-14T00:13:10.515Z,74187
2016-09-14T00:13:19.193Z,74184
2016-09-14T00:13:27.900Z,74187
2016-09-14T00:13:36.636Z,74187
2016-09-14T00:13:45.363Z,74187
2016-09-14T00:13:54.099Z,74186
2016-09-14T00:14:02.826Z,74190
2016-09-14T00:14:11.555Z,74184
2016-09-14T00:14:20.272Z,74192
2016-09-14T00:14:29.007Z,74188
2016-09-14T00:14:37.708Z,74183
2016-09-14T00:14:46.434Z,74183
2016-09-14T00:14:55.149Z,74184
2016-09-14T00:15:03.838Z,74185
2016-09-14T00:15:12.517Z,74186
2016-09-14T00:15:21.483Z,74185
2016-09-14T00:15:30.220Z,74183
2016-09-14T00:15:38.937Z,74190
2016-09-14T00:15:47.616Z,74184
2016-09-14T00:15:56.275Z,74185
2016-09-14T00:16:04.961Z,74187
2016-09-14T00:16:13.686Z,74188
2016-09-14T00:16:22.375Z,74186
2016-09-14T00:16:31.078Z,74187
2016-09-14T00:16:39.799Z,74182
2016-09-14T00:16:48.558Z,74184
2016-09-14T00:16:57.315Z,74183
2016-09-14T00:17:06.354Z,74185
2016-09-14T00:17:15.062Z,74183
2016-09-14T00:17:23.785Z,74182
2016-09-14T00:17:32.519Z,74183
2016-09-14T00:17:41.205Z,74184
2016-09-14T00:17:49.969Z,74184
2016-09-14T00:17:58.704Z,74184
2016-09-14T00:18:07.451Z,74182
2016-09-14T00:18:16.135Z,74184
2016-09-14T00:18:24.810Z,74187
2016-09-14T00:18:33.514Z,74185
2016-09-14T00:18:42.233Z,74184
2016-09-14T00:18:50.949Z,74184
2016-09-14T00:18:59.656Z,74183
2016-09-14T00:19:08.416Z,74181
2016-09-14T00:19:17.139Z,74179
2016-09-14T00:19:25.823Z,74183
2016-09-14T00:19:34.544Z,74185
2016-09-14T00:19:43.286Z,74180
2016-09-14T00:19:52.052Z,74187
2016-09-14T00:20:00.795Z,74178
2016-09-14T00:20:09.555Z,74181
2016-09-14T00:20:18.251Z,74182
2016-09-14T00:20:27.004Z,74185
2016-09-14T00:20:35.702Z,74184
2016-09-14T00:20:44.386Z,74183
2016-09-14T00:20:53.103Z,74183
2016-09-14T00:21:01.825Z,74185
2016-09-14T00:21:10.502Z,74180
2016-09-14T00:21:19.232Z,74180
2016-09-14T00:21:27.947Z,74186
2016-09-14T00:21:36.672Z,74179
2016-09-14T00:21:45.437Z,74182
2016-09-14T00:21:54.171Z,74180
2016-09-14T00:22:02.877Z,74185
2016-09-14T00:22:11.611Z,74184
2016-09-14T00:22:20.343Z,74179
2016-09-14T00:22:29.042Z,74183
2016-09-14T00:22:37.750Z,74181
2016-09-14T00:22:46.491Z,74180
2016-09-14T00:22:55.205Z,74185
2016-09-14T00:23:03.904Z,74180
2016-09-14T00:23:12.606Z,74179
2016-09-14T00:23:21.293Z,74175
2016-09-14T00:23:30.062Z,74179
2016-09-14T00:23:38.757Z,74184
2016-09-14T00:23:47.442Z,74181
2016-09-14T00:23:56.159Z,74178
2016-09-14T00:24:04.865Z,74177
2016-09-14T00:24:13.561Z,74173
2016-09-14T00:24:22.271Z,74177
2016-09-14T00:24:30.925Z,74178
2016-09-14T00:24:39.637Z,74179
2016-09-14T00:24:48.361Z,74178
2016-09-14T00:24:57.120Z,74181
2016-09-14T00:25:05.845Z,74180
2016-09-14T00:25:14.511Z,74180
2016-09-14T00:25:23.225Z,74180
2016-09-14T00:25:31.952Z,74180
2016-09-14T00:25:40.659Z,74176
2016-09-14T00:25:49.403Z,74174
2016-09-14T00:25:58.119Z,74180
2016-09-14T00:26:06.852Z,74175
2016-09-14T00:26:15.544Z,74180
2016-09-14T00:26:24.225Z,74175
2016-09-14T00:26:32.943Z,74177
2016-09-14T00:26:41.663Z,74177
2016-09-14T00:26:50.361Z,74176
2016-09-14T00:26:59.357Z,74177
2016-09-14T00:27:08.049Z,74176
2016-09-14T00:27:16.752Z,74177
2016-09-14T00:27:25.732Z,74179
2016-09-14T00:27:34.466Z,74177
2016-09-14T00:27:43.180Z,74177
2016-09-14T00:27:51.912Z,74174
2016-09-14T00:28:00.613Z,74177
2016-09-14T00:28:09.293Z,74175
2016-09-14T00:28:18.008Z,74176
2016-09-14T00:28:26.750Z,74179
2016-09-14T00:28:35.444Z,74182
2016-09-14T00:28:44.134Z,74178
2016-09-14T00:28:52.805Z,74180
2016-09-14T00:29:01.532Z,74178
2016-09-14T00:29:10.268Z,74178
2016-09-14T00:29:18.980Z,74177
2016-09-14T00:29:27.675Z,74180
2016-09-14T00:29:36.378Z,74179
2016-09-14T00:29:45.078Z,74175
2016-09-14T00:29:53.809Z,74173
2016-09-14T00:30:02.531Z,74173
2016-09-14T00:30:11.251Z,74172
2016-09-14T00:30:20.269Z,74175
2016-09-14T00:30:28.942Z,74177
2016-09-14T00:30:37.638Z,74177
2016-09-14T00:30:46.310Z,74177
2016-09-14T00:30:55.035Z,74177
2016-09-14T00:31:03.777Z,74179
2016-09-14T00:31:12.475Z,74179
2016-09-14T00:31:21.183Z,74176
2016-09-14T00:31:29.903Z,74179
2016-09-14T00:31:38.607Z,74175
2016-09-14T00:31:47.316Z,74178
2016-09-14T00:31:56.010Z,74176
2016-09-14T00:32:04.712Z,74179
2016-09-14T00:32:13.422Z,74179
2016-09-14T00:32:22.137Z,74175
2016-09-14T00:32:30.845Z,74183
2016-09-14T00:32:39.565Z,74181
2016-09-14T00:32:48.314Z,74180
2016-09-14T00:32:57.008Z,74176
2016-09-14T00:33:05.707Z,74176
2016-09-14T00:33:14.415Z,74178
2016-09-14T00:33:23.116Z,74176
2016-09-14T00:33:31.831Z,74179
2016-09-14T00:33:40.544Z,74177
2016-09-14T00:33:49.239Z,74178
2016-09-14T00:33:57.954Z,74183
2016-09-14T00:34:06.662Z,74177
2016-09-14T00:34:15.416Z,74181
2016-09-14T00:34:24.118Z,74177
2016-09-14T00:34:32.794Z,74179
2016-09-14T00:34:41.538Z,74175
2016-09-14T00:34:50.252Z,74179
2016-09-14T00:34:58.956Z,74175
2016-09-14T00:35:07.657Z,74175
2016-09-14T00:35:16.357Z,74178
2016-09-14T00:35:25.037Z,74183
2016-09-14T00:35:33.724Z,74178
2016-09-14T00:35:42.491Z,74179
2016-09-14T00:35:51.211Z,74173
2016-09-14T00:35:59.945Z,74182
2016-09-14T00:36:08.708Z,74176
2016-09-14T00:36:17.383Z,74178
2016-09-14T00:36:26.070Z,74180
2016-09-14T00:36:34.812Z,74179
2016-09-14T00:36:43.556Z,74178
2016-09-14T00:36:52.246Z,74172
2016-09-14T00:37:00.954Z,74176
2016-09-14T00:37:09.655Z,74177
2016-09-14T00:37:18.357Z,74184
2016-09-14T00:37:27.102Z,74179
2016-09-14T00:37:35.845Z,74180
2016-09-14T00:37:44.552Z,74181
2016-09-14T00:37:53.298Z,74177
2016-09-14T00:38:02.023Z,74176
2016-09-14T00:38:10.656Z,74176
2016-09-14T00:38:19.395Z,74177
2016-09-14T00:38:28.083Z,74180
2016-09-14T00:38:36.767Z,74172
2016-09-14T00:38:45.498Z,74178
2016-09-14T00:38:54.214Z,74174
2016-09-14T00:39:02.958Z,74178
2016-09-14T00:39:11.656Z,74175
2016-09-14T00:39:20.362Z,74173
2016-09-14T00:39:29.128Z,74173
2016-09-14T00:39:37.842Z,74174
2016-09-14T00:39:46.541Z,74173
2016-09-14T00:39:55.232Z,74178
2016-09-14T00:40:03.915Z,74176
2016-09-14T00:40:12.642Z,74180
2016-09-14T00:40:21.380Z,74180
2016-09-14T00:40:30.078Z,74181
2016-09-14T00:40:38.820Z,74175
2016-09-14T00:40:47.498Z,74175
2016-09-14T00:40:56.183Z,74178
2016-09-14T00:41:04.899Z,74177
2016-09-14T00:41:13.620Z,74178
2016-09-14T00:41:22.279Z,74177
2016-09-14T00:41:30.995Z,74175
2016-09-14T00:41:39.732Z,74178
2016-09-14T00:41:48.457Z,74177
2016-09-14T00:41:57.185Z,74178
2016-09-14T00:42:05.900Z,74178
2016-09-14T00:42:14.604Z,74174
2016-09-14T00:42:23.321Z,74176
2016-09-14T00:42:32.035Z,74178
2016-09-14T00:42:40.781Z,74178
2016-09-14T00:42:49.468Z,74180
2016-09-14T00:42:58.171Z,74177
2016-09-14T00:43:06.882Z,74175
2016-09-14T00:43:15.624Z,74180
2016-09-14T00:43:24.322Z,74175
2016-09-14T00:43:33.056Z,74180
2016-09-14T00:43:41.802Z,74178
2016-09-14T00:43:50.504Z,74180
2016-09-14T00:43:59.182Z,74177
2016-09-14T00:44:07.886Z,74177
2016-09-14T00:44:16.624Z,74177
2016-09-14T00:44:25.324Z,74174
2016-09-14T00:44:34.368Z,74176
2016-09-14T00:44:43.057Z,74177
2016-09-14T00:44:51.771Z,74178
2016-09-14T00:45:00.502Z,74180
2016-09-14T00:45:09.235Z,74178
2016-09-14T00:45:17.936Z,74178
2016-09-14T00:45:26.621Z,74179
2016-09-14T00:45:35.321Z,74179
2016-09-14T00:45:44.065Z,74181
2016-09-14T00:45:52.784Z,74177
2016-09-14T00:46:01.804Z,74178
2016-09-14T00:46:10.506Z,74181
2016-09-14T00:46:19.218Z,74178
2016-09-14T00:46:27.924Z,74181
2016-09-14T00:46:36.653Z,74179
2016-09-14T00:46:45.642Z,74178
2016-09-14T00:46:54.365Z,74178
2016-09-14T00:47:03.111Z,74179
2016-09-14T00:47:11.833Z,74179
2016-09-14T00:47:20.529Z,74180
2016-09-14T00:47:29.266Z,74181
2016-09-14T00:47:37.980Z,74175
2016-09-14T00:47:46.752Z,74183
2016-09-14T00:47:55.478Z,74179
2016-09-14T00:48:04.196Z,74179
2016-09-14T00:48:12.913Z,74178
2016-09-14T00:48:21.670Z,74175
2016-09-14T00:48:30.376Z,74176
2016-09-14T00:48:39.097Z,74175
2016-09-14T00:48:47.839Z,74182
2016-09-14T00:48:56.518Z,74176
2016-09-14T00:49:05.234Z,74176
2016-09-14T00:49:13.912Z,74172
2016-09-14T00:49:22.662Z,74173
2016-09-14T00:49:31.368Z,74173
2016-09-14T00:49:40.073Z,74173
2016-09-14T00:49:48.773Z,74179
2016-09-14T00:49:57.511Z,74171
2016-09-14T00:50:06.226Z,74174
2016-09-14T00:50:14.944Z,74172
2016-09-14T00:50:23.649Z,74172
2016-09-14T00:50:32.370Z,74177
2016-09-14T00:50:41.077Z,74177
2016-09-14T00:50:49.761Z,74176
2016-09-14T00:50:58.497Z,74179
2016-09-14T00:51:07.182Z,74179
2016-09-14T00:51:15.918Z,74180
2016-09-14T00:51:24.607Z,74181
2016-09-14T00:51:33.316Z,74177
2016-09-14T00:51:42.037Z,74173
2016-09-14T00:51:50.741Z,74177
2016-09-14T00:51:59.750Z,74178
2016-09-14T00:52:08.410Z,74178
2016-09-14T00:52:17.150Z,74178
2016-09-14T00:52:25.876Z,74175
2016-09-14T00:52:34.578Z,74176
2016-09-14T00:52:43.285Z,74175
2016-09-14T00:52:52.000Z,74177
2016-09-14T00:53:00.712Z,74176
2016-09-14T00:53:09.414Z,74174
2016-09-14T00:53:18.100Z,74179
2016-09-14T00:53:26.800Z,74177
2016-09-14T00:53:35.544Z,74179
2016-09-14T00:53:44.242Z,74177
2016-09-14T00:53:52.959Z,74175
2016-09-14T00:54:01.669Z,74176
2016-09-14T00:54:10.362Z,74181
2016-09-14T00:54:19.056Z,74178
2016-09-14T00:54:27.734Z,74179
2016-09-14T00:54:36.423Z,74178
2016-09-14T00:54:45.102Z,74177
2016-09-14T00:54:53.803Z,74178
2016-09-14T00:55:02.511Z,74175
2016-09-14T00:55:11.233Z,74176
2016-09-14T00:55:19.952Z,74175
2016-09-14T00:55:28.661Z,74173
2016-09-14T00:55:37.400Z,74173
2016-09-14T00:55:46.133Z,74172
2016-09-14T00:55:54.858Z,74178
2016-09-14T00:56:03.577Z,74178
2016-09-14T00:56:12.279Z,74177
2016-09-14T00:56:20.967Z,74175
2016-09-14T00:56:29.682Z,74174
2016-09-14T00:56:38.366Z,74174
2016-09-14T00:56:47.084Z,74178
2016-09-14T00:56:55.836Z,74171
2016-09-14T00:57:04.529Z,74173
2016-09-14T00:57:13.237Z,74177
2016-09-14T00:57:21.997Z,74175
2016-09-14T00:57:30.740Z,74174
2016-09-14T00:57:39.468Z,74179
2016-09-14T00:57:48.187Z,74178
2016-09-14T00:57:57.173Z,74175
2016-09-14T00:58:05.894Z,74176
2016-09-14T00:58:14.628Z,74173
2016-09-14T00:58:23.293Z,74175
2016-09-14T00:58:32.036Z,74172
2016-09-14T00:58:41.027Z,74171
2016-09-14T00:58:49.765Z,74169
2016-09-14T00:58:58.454Z,74175
2016-09-14T00:59:07.147Z,74171
2016-09-14T00:59:15.878Z,74174
2016-09-14T00:59:24.585Z,74173
2016-09-14T00:59:33.593Z,74173
2016-09-14T00:59:42.333Z,74176
2016-09-14T00:59:51.049Z,74181
2016-09-14T00:59:59.762Z,74182
2016-09-14T01:00:08.438Z,74177
2016-09-14T01:00:17.124Z,74175
2016-09-14T01:00:25.824Z,74175
2016-09-14T01:00:34.529Z,74176
2016-09-14T01:00:43.234Z,74175
2016-09-14T01:00:51.961Z,74177
2016-09-14T01:01:00.656Z,74175
2016-09-14T01:01:09.408Z,74178
2016-09-14T01:01:18.144Z,74177
2016-09-14T01:01:26.867Z,74179
2016-09-14T01:01:35.590Z,74179
2016-09-14T01:01:44.293Z,74177
2016-09-14T01:01:53.035Z,74178
2016-09-14T01:02:01.750Z,74180
2016-09-14T01:02:10.459Z,74175
2016-09-14T01:02:19.172Z,74174
2016-09-14T01:02:27.873Z,74178
2016-09-14T01:02:36.625Z,74174
2016-09-14T01:02:45.318Z,74173
2016-09-14T01:02:53.991Z,74176
2016-09-14T01:03:02.722Z,74178
2016-09-14T01:03:11.443Z,74178
2016-09-14T01:03:20.150Z,74178
2016-09-14T01:03:28.864Z,74175
2016-09-14T01:03:37.545Z,74174
2016-09-14T01:03:46.250Z,74177
2016-09-14T01:03:54.992Z,74171
2016-09-14T01:04:03.738Z,74176
2016-09-14T01:04:12.432Z,74181
2016-09-14T01:04:21.131Z,74179
2016-09-14T01:04:29.811Z,74181
2016-09-14T01:04:38.531Z,74176
2016-09-14T01:04:47.538Z,74172
2016-09-14T01:04:56.262Z,74180
2016-09-14T01:05:04.990Z,74178
2016-09-14T01:05:13.705Z,74179
2016-09-14T01:05:22.440Z,74179
2016-09-14T01:05:31.168Z,74179
2016-09-14T01:05:39.863Z,74176
2016-09-14T01:05:48.592Z,74182
2016-09-14T01:05:57.310Z,74181
2016-09-14T01:06:06.041Z,74179
2016-09-14T01:06:14.726Z,74180
2016-09-14T01:06:23.424Z,74181
2016-09-14T01:06:32.190Z,74179
2016-09-14T01:06:41.219Z,74176
2016-09-14T01:06:49.928Z,74177
2016-09-14T01:06:58.649Z,74183
2016-09-14T01:07:07.345Z,74178
2016-09-14T01:07:16.087Z,74181
2016-09-14T01:07:24.816Z,74176
2016-09-14T01:07:33.561Z,74183
2016-09-14T01:07:42.253Z,74180
2016-09-14T01:07:50.949Z,74179
2016-09-14T01:07:59.623Z,74176
2016-09-14T01:08:08.276Z,74179
2016-09-14T01:08:16.983Z,74181
2016-09-14T01:08:25.708Z,74183
2016-09-14T01:08:34.424Z,74179
2016-09-14T01:08:43.120Z,74178
2016-09-14T01:08:51.844Z,74175
2016-09-14T01:09:00.535Z,74178
2016-09-14T01:09:09.278Z,74182
2016-09-14T01:09:17.995Z,74177
2016-09-14T01:09:26.695Z,74177
2016-09-14T01:09:35.396Z,74176
2016-09-14T01:09:44.102Z,74175
2016-09-14T01:09:52.819Z,74178
2016-09-14T01:10:01.536Z,74179
2016-09-14T01:10:10.253Z,74176
2016-09-14T01:10:18.981Z,74179
2016-09-14T01:10:27.712Z,74175
2016-09-14T01:10:36.474Z,74182
2016-09-14T01:10:45.173Z,74178
2016-09-14T01:10:53.894Z,74181
2016-09-14T01:11:02.599Z,74181
2016-09-14T01:11:11.315Z,74180
2016-09-14T01:11:20.001Z,74176
2016-09-14T01:11:28.717Z,74176
2016-09-14T01:11:37.418Z,74179
2016-09-14T01:11:46.094Z,74175
2016-09-14T01:11:54.789Z,74175
2016-09-14T01:12:03.463Z,74174
2016-09-14T01:12:12.189Z,74175
2016-09-14T01:12:20.879Z,74175
2016-09-14T01:12:29.603Z,74178
2016-09-14T01:12:38.307Z,74174
2016-09-14T01:12:47.030Z,74177
2016-09-14T01:12:55.740Z,74176
2016-09-14T01:13:04.436Z,74177
2016-09-14T01:13:13.165Z,74174
2016-09-14T01:13:21.859Z,74173
2016-09-14T01:13:30.582Z,74175
2016-09-14T01:13:39.316Z,74174
2016-09-14T01:13:48.022Z,74176
2016-09-14T01:13:56.706Z,74177
2016-09-14T01:14:05.436Z,74171
2016-09-14T01:14:14.152Z,74176
2016-09-14T01:14:22.865Z,74175
2016-09-14T01:14:31.565Z,74175
2016-09-14T01:14:40.264Z,74176
2016-09-14T01:14:48.965Z,74174
2016-09-14T01:14:57.691Z,74180
2016-09-14T01:15:06.406Z,74175
2016-09-14T01:15:15.116Z,74175
2016-09-14T01:15:23.874Z,74174
2016-09-14T01:15:32.537Z,74170
2016-09-14T01:15:41.267Z,74173
2016-09-14T01:15:50.253Z,74171
2016-09-14T01:15:58.942Z,74174
2016-09-14T01:16:07.615Z,74175
2016-09-14T01:16:16.297Z,74175
2016-09-14T01:16:25.015Z,74173
2016-09-14T01:16:33.729Z,74172
2016-09-14T01:16:42.479Z,74174
2016-09-14T01:16:51.214Z,74175
2016-09-14T01:16:59.901Z,74171
2016-09-14T01:17:08.596Z,74174
2016-09-14T01:17:17.255Z,74172
2016-09-14T01:17:25.913Z,74172
2016-09-14T01:17:34.620Z,74174
2016-09-14T01:17:43.314Z,74171
2016-09-14T01:17:52.041Z,74171
2016-09-14T01:18:01.055Z,74171
2016-09-14T01:18:09.763Z,74169
2016-09-14T01:18:18.472Z,74173
2016-09-14T01:18:27.468Z,74168
2016-09-14T01:18:36.203Z,74169
2016-09-14T01:18:44.913Z,74170
2016-09-14T01:18:53.628Z,74167
2016-09-14T01:19:02.345Z,74170
2016-09-14T01:19:11.080Z,74166
2016-09-14T01:19:19.783Z,74169
2016-09-14T01:19:28.530Z,74168
2016-09-14T01:19:37.274Z,74170
2016-09-14T01:19:46.272Z,74166
2016-09-14T01:19:54.975Z,74167
2016-09-14T01:20:03.651Z,74173
2016-09-14T01:20:12.368Z,74166
2016-09-14T01:20:21.072Z,74164
2016-09-14T01:20:29.802Z,74167
2016-09-14T01:20:38.515Z,74169
2016-09-14T01:20:47.212Z,74168
2016-09-14T01:20:55.975Z,74170
2016-09-14T01:21:04.677Z,74166
2016-09-14T01:21:13.380Z,74168
2016-09-14T01:21:22.064Z,74166
2016-09-14T01:21:30.830Z,74168
2016-09-14T01:21:39.537Z,74170
2016-09-14T01:21:48.279Z,74167
2016-09-14T01:21:57.010Z,74169
2016-09-14T01:22:05.714Z,74168
2016-09-14T01:22:14.488Z,74168
2016-09-14T01:22:23.176Z,74167
2016-09-14T01:22:31.853Z,74168
2016-09-14T01:22:40.575Z,74166
2016-09-14T01:22:49.330Z,74167
2016-09-14T01:22:58.040Z,74167
2016-09-14T01:23:06.796Z,74164
2016-09-14T01:23:15.517Z,74168
2016-09-14T01:23:24.567Z,74170
2016-09-14T01:23:33.268Z,74169
2016-09-14T01:23:42.032Z,74171
2016-09-14T01:23:50.774Z,74171
2016-09-14T01:23:59.525Z,74170
2016-09-14T01:24:08.228Z,74172
2016-09-14T01:24:16.946Z,74171
2016-09-14T01:24:25.640Z,74173
2016-09-14T01:24:34.399Z,74167
2016-09-14T01:24:43.096Z,74171
2016-09-14T01:24:51.817Z,74170
2016-09-14T01:25:00.543Z,74172
2016-09-14T01:25:09.236Z,74170
2016-09-14T01:25:17.967Z,74170
2016-09-14T01:25:26.668Z,74170
2016-09-14T01:25:35.382Z,74174
2016-09-14T01:25:44.106Z,74171
2016-09-14T01:25:52.823Z,74173
2016-09-14T01:26:01.525Z,74174
2016-09-14T01:26:10.476Z,74171
2016-09-14T01:26:19.194Z,74175
2016-09-14T01:26:27.903Z,74173
2016-09-14T01:26:36.627Z,74173
2016-09-14T01:26:45.330Z,74173
2016-09-14T01:26:54.032Z,74175
2016-09-14T01:27:02.717Z,74167
2016-09-14T01:27:11.417Z,74167
2016-09-14T01:27:20.161Z,74173
2016-09-14T01:27:28.886Z,74168
2016-09-14T01:27:37.566Z,74172
2016-09-14T01:27:46.286Z,74170
2016-09-14T01:27:55.022Z,74171
2016-09-14T01:28:03.999Z,74170
2016-09-14T01:28:12.719Z,74170
2016-09-14T01:28:21.479Z,74170
2016-09-14T01:28:30.218Z,74170
2016-09-14T01:28:38.918Z,74168
2016-09-14T01:28:47.591Z,74168
2016-09-14T01:28:56.319Z,74171
2016-09-14T01:29:05.050Z,74172
2016-09-14T01:29:13.746Z,74170
2016-09-14T01:29:22.476Z,74168
2016-09-14T01:29:31.206Z,74169
2016-09-14T01:29:39.883Z,74167
2016-09-14T01:29:48.585Z,74168
2016-09-14T01:29:57.279Z,74166
2016-09-14T01:30:05.964Z,74165
2016-09-14T01:30:14.682Z,74169
2016-09-14T01:30:23.382Z,74166
2016-09-14T01:30:32.360Z,74168
2016-09-14T01:30:41.063Z,74170
2016-09-14T01:30:49.762Z,74170
2016-09-14T01:30:58.441Z,74169
2016-09-14T01:31:07.150Z,74169
2016-09-14T01:31:15.821Z,74171
2016-09-14T01:31:24.513Z,74171
2016-09-14T01:31:33.218Z,74170
2016-09-14T01:31:41.923Z,74170
2016-09-14T01:31:50.614Z,74170
2016-09-14T01:31:59.368Z,74169
2016-09-14T01:32:08.029Z,74173
2016-09-14T01:32:16.759Z,74173
2016-09-14T01:32:25.477Z,74174
2016-09-14T01:32:34.204Z,74167
2016-09-14T01:32:42.882Z,74166
2016-09-14T01:32:51.575Z,74166
2016-09-14T01:33:00.276Z,74166
2016-09-14T01:33:08.956Z,74171
2016-09-14T01:33:17.638Z,74170
2016-09-14T01:33:26.332Z,74171
2016-09-14T01:33:35.011Z,74171
2016-09-14T01:33:43.735Z,74172
2016-09-14T01:33:52.449Z,74172
2016-09-14T01:34:01.140Z,74167
2016-09-14T01:34:10.165Z,74169
2016-09-14T01:34:18.886Z,74166
2016-09-14T01:34:27.626Z,74170
2016-09-14T01:34:36.377Z,74167
2016-09-14T01:34:45.066Z,74169
2016-09-14T01:34:53.801Z,74170
2016-09-14T01:35:02.524Z,74164
2016-09-14T01:35:11.195Z,74168
2016-09-14T01:35:19.857Z,74174
2016-09-14T01:35:28.561Z,74173
2016-09-14T01:35:37.240Z,74169
2016-09-14T01:35:45.920Z,74170
2016-09-14T01:35:54.582Z,74170
2016-09-14T01:36:03.293Z,74167
2016-09-14T01:36:11.975Z,74169
2016-09-14T01:36:20.698Z,74171
2016-09-14T01:36:29.396Z,74171
2016-09-14T01:36:38.133Z,74171
2016-09-14T01:36:46.853Z,74172
2016-09-14T01:36:55.561Z,74169
2016-09-14T01:37:04.263Z,74173
2016-09-14T01:37:12.978Z,74170
2016-09-14T01:37:21.687Z,74167
2016-09-14T01:37:30.400Z,74168
2016-09-14T01:37:39.108Z,74172
2016-09-14T01:37:47.805Z,74172
2016-09-14T01:37:56.531Z,74170
2016-09-14T01:38:05.229Z,74170
2016-09-14T01:38:13.966Z,74170
2016-09-14T01:38:22.670Z,74170
2016-09-14T01:38:31.412Z,74169
2016-09-14T01:38:40.104Z,74165
2016-09-14T01:38:48.787Z,74169
2016-09-14T01:38:57.513Z,74171
2016-09-14T01:39:06.184Z,74169
2016-09-14T01:39:14.926Z,74169
2016-09-14T01:39:23.611Z,74165
2016-09-14T01:39:32.356Z,74168
2016-09-14T01:39:41.058Z,74170
2016-09-14T01:39:49.742Z,74171
2016-09-14T01:39:58.434Z,74169
2016-09-14T01:40:07.177Z,74167
2016-09-14T01:40:15.916Z,74167
2016-09-14T01:40:24.632Z,74167
2016-09-14T01:40:33.311Z,74169
2016-09-14T01:40:42.045Z,74166
2016-09-14T01:40:50.781Z,74169
2016-09-14T01:40:59.466Z,74168
2016-09-14T01:41:08.200Z,74172
2016-09-14T01:41:16.956Z,74171
2016-09-14T01:41:25.663Z,74173
2016-09-14T01:41:34.416Z,74170
2016-09-14T01:41:43.082Z,74167
2016-09-14T01:41:51.804Z,74168
2016-09-14T01:42:00.498Z,74168
2016-09-14T01:42:09.215Z,74171
2016-09-14T01:42:17.924Z,74170
2016-09-14T01:42:26.599Z,74170
2016-09-14T01:42:35.293Z,74170
2016-09-14T01:42:44.056Z,74171
2016-09-14T01:42:52.772Z,74170
2016-09-14T01:43:01.482Z,74168
2016-09-14T01:43:10.206Z,74169
2016-09-14T01:43:18.885Z,74169
2016-09-14T01:43:27.622Z,74167
2016-09-14T01:43:36.363Z,74166
2016-09-14T01:43:45.108Z,74167
2016-09-14T01:43:53.789Z,74169
2016-09-14T01:44:02.498Z,74167
2016-09-14T01:44:11.509Z,74167
2016-09-14T01:44:20.243Z,74167
2016-09-14T01:44:28.944Z,74172
2016-09-14T01:44:37.652Z,74168
2016-09-14T01:44:46.377Z,74167
2016-09-14T01:44:55.058Z,74166
2016-09-14T01:45:03.793Z,74168
2016-09-14T01:45:12.516Z,74167
2016-09-14T01:45:21.245Z,74169
2016-09-14T01:45:29.966Z,74169
2016-09-14T01:45:38.709Z,74167
2016-09-14T01:45:47.424Z,74162
2016-09-14T01:45:56.128Z,74163
2016-09-14T01:46:04.840Z,74167
2016-09-14T01:46:13.498Z,74164
2016-09-14T01:46:22.190Z,74164
2016-09-14T01:46:30.917Z,74164
2016-09-14T01:46:39.607Z,74163
2016-09-14T01:46:48.335Z,74168
2016-09-14T01:46:57.036Z,74165
2016-09-14T01:47:05.762Z,74169
2016-09-14T01:47:14.470Z,74164
2016-09-14T01:47:23.222Z,74165
2016-09-14T01:47:31.957Z,74166
2016-09-14T01:47:40.672Z,74167
2016-09-14T01:47:49.719Z,74165
2016-09-14T01:47:58.462Z,74167
2016-09-14T01:48:07.198Z,74170
2016-09-14T01:48:15.909Z,74167
2016-09-14T01:48:24.634Z,74166
2016-09-14T01:48:33.329Z,74164
2016-09-14T01:48:42.027Z,74165
2016-09-14T01:48:50.746Z,74163
2016-09-14T01:48:59.455Z,74166
2016-09-14T01:49:08.170Z,74163
2016-09-14T01:49:16.891Z,74165
2016-09-14T01:49:25.599Z,74167
2016-09-14T01:49:34.294Z,74167
2016-09-14T01:49:43.018Z,74166
2016-09-14T01:49:51.752Z,74166
2016-09-14T01:50:00.483Z,74166
2016-09-14T01:50:09.207Z,74166
2016-09-14T01:50:17.952Z,74163
2016-09-14T01:50:26.672Z,74163
2016-09-14T01:50:35.380Z,74166
2016-09-14T01:50:44.105Z,74162
2016-09-14T01:50:52.830Z,74163
2016-09-14T01:51:01.581Z,74166
2016-09-14T01:51:10.306Z,74165
2016-09-14T01:51:19.019Z,74168
2016-09-14T01:51:27.704Z,74168
2016-09-14T01:51:36.386Z,74165
2016-09-14T01:51:45.103Z,74169
2016-09-14T01:51:53.836Z,74170
2016-09-14T01:52:02.536Z,74163
2016-09-14T01:52:11.248Z,74167
2016-09-14T01:52:19.984Z,74166